Time;durP1;ratioP1;P1;durP2;ratioP2;P2;SDS_P1;SDS_P2;PMS_P1;PMS_P2;Temp;Humidity;BMP_temperature;BMP_pressure;BME280_temperature;BME280_humidity;BME280_pressure;Samples;Min_cycle;Max_cycle;Signal;HPM_P1;HPM_P2
2021/08/16 00:01:39;;;;;;;6.75;4.07;;;;;;;;;;4463558;32;20597;-57
2021/08/16 00:04:05;;;;;;;4.70;3.58;;;;;;;;;;4463347;32;20276;-57
2021/08/16 00:06:30;;;;;;;5.05;3.90;;;;;;;;;;4463500;32;20278;-57
2021/08/16 00:08:56;;;;;;;5.28;4.70;;;;;;;;;;4448123;32;21112;-58
2021/08/16 00:11:21;;;;;;;6.43;4.78;;;;;;;;;;4447853;32;20292;-57
2021/08/16 00:13:47;;;;;;;5.82;4.68;;;;;;;;;;4447772;32;20253;-57
2021/08/16 00:16:12;;;;;;;6.20;4.03;;;;;;;;;;4447898;32;20380;-57
2021/08/16 00:18:38;;;;;;;6.00;4.43;;;;;;;;;;4447790;32;20224;-57
2021/08/16 00:21:04;;;;;;;9.65;5.25;;;;;;;;;;4447749;32;20744;-57
2021/08/16 00:23:29;;;;;;;4.65;3.22;;;;;;;;;;4447542;32;20216;-57
2021/08/16 00:25:55;;;;;;;13.23;4.18;;;;;;;;;;4447701;32;20276;-57
2021/08/16 00:28:21;;;;;;;6.57;4.35;;;;;;;;;;4447384;32;20268;-57
2021/08/16 00:30:46;;;;;;;9.60;4.37;;;;;;;;;;4447457;32;20385;-58
2021/08/16 00:33:12;;;;;;;4.62;3.72;;;;;;;;;;4460803;32;20725;-57
2021/08/16 00:35:37;;;;;;;4.75;3.92;;;;;;;;;;4462747;32;20310;-57
2021/08/16 00:38:04;;;;;;;9.40;4.15;;;;;;;;;;4463414;32;20287;-57
2021/08/16 00:40:30;;;;;;;9.23;4.35;;;;;;;;;;4463335;32;20203;-58
2021/08/16 00:42:56;;;;;;;12.77;5.47;;;;;;;;;;4463276;32;20197;-57
2021/08/16 00:45:22;;;;;;;6.03;4.55;;;;;;;;;;4463319;32;20294;-58
2021/08/16 00:47:47;;;;;;;5.62;4.60;;;;;;;;;;4463288;32;20674;-56
2021/08/16 00:50:13;;;;;;;5.80;3.70;;;;;;;;;;4461842;32;20297;-56
2021/08/16 00:52:41;;;;;;;7.22;4.55;;;;;;;;;;4463071;32;20276;-56
2021/08/16 00:55:09;;;;;;;6.80;4.62;;;;;;;;;;4462992;32;20259;-56
2021/08/16 00:57:35;;;;;;;5.20;4.28;;;;;;;;;;4463092;32;20596;-57
2021/08/16 01:00:06;;;;;;;5.30;3.95;;;;;;;;;;4463057;32;20267;-56
2021/08/16 01:02:33;;;;;;;5.05;4.20;;;;;;;;;;4463322;32;20208;-56
2021/08/16 01:05:04;;;;;;;7.50;4.57;;;;;;;;;;4463007;32;20216;-56
2021/08/16 01:07:33;;;;;;;9.70;4.28;;;;;;;;;;4462384;32;20260;-56
2021/08/16 01:10:00;;;;;;;7.15;4.57;;;;;;;;;;4465836;32;20274;-56
2021/08/16 01:12:28;;;;;;;6.95;4.43;;;;;;;;;;4465726;32;20271;-57
2021/08/16 01:14:53;;;;;;;5.25;4.10;;;;;;;;;;4465515;32;20248;-56
2021/08/16 01:17:19;;;;;;;7.93;4.22;;;;;;;;;;4466004;32;20373;-57
2021/08/16 01:19:44;;;;;;;5.87;3.78;;;;;;;;;;4453090;32;20294;-57
2021/08/16 01:22:10;;;;;;;7.12;4.30;;;;;;;;;;4448915;32;20698;-57
2021/08/16 01:24:36;;;;;;;5.40;4.18;;;;;;;;;;4450032;32;20329;-58
2021/08/16 01:27:09;;;;;;;5.30;3.75;;;;;;;;;;4450010;32;20267;-58
2021/08/16 01:29:35;;;;;;;5.12;4.00;;;;;;;;;;4449906;32;20274;-57
2021/08/16 01:32:01;;;;;;;9.38;3.92;;;;;;;;;;4455836;32;20652;-58
2021/08/16 01:34:27;;;;;;;5.32;3.95;;;;;;;;;;4465093;32;20256;-57
2021/08/16 01:36:53;;;;;;;5.28;4.18;;;;;;;;;;4465391;32;20619;-57
2021/08/16 01:39:19;;;;;;;6.20;3.83;;;;;;;;;;4465144;32;20216;-57
2021/08/16 01:41:47;;;;;;;4.62;3.55;;;;;;;;;;4465549;32;20288;-57
2021/08/16 01:44:14;;;;;;;5.00;3.72;;;;;;;;;;4465495;32;20349;-57
2021/08/16 01:46:41;;;;;;;13.98;4.87;;;;;;;;;;4463580;32;20572;-56
2021/08/16 01:49:08;;;;;;;4.28;3.85;;;;;;;;;;4465147;32;20264;-56
2021/08/16 01:51:34;;;;;;;5.03;3.75;;;;;;;;;;4465141;32;20269;-57
2021/08/16 01:53:59;;;;;;;9.45;4.00;;;;;;;;;;4465326;32;20220;-56
2021/08/16 01:56:25;;;;;;;7.07;4.72;;;;;;;;;;4465148;32;20396;-56
2021/08/16 01:58:50;;;;;;;7.80;4.35;;;;;;;;;;4465166;32;20305;-56
2021/08/16 02:01:16;;;;;;;8.95;4.20;;;;;;;;;;4464833;32;20379;-56
2021/08/16 02:03:41;;;;;;;5.57;3.83;;;;;;;;;;4465020;32;20250;-56
2021/08/16 02:06:06;;;;;;;8.43;4.20;;;;;;;;;;4465151;32;20309;-56
2021/08/16 02:08:32;;;;;;;4.95;3.95;;;;;;;;;;4464640;32;20342;-56
2021/08/16 02:10:57;;;;;;;8.63;4.70;;;;;;;;;;4464957;32;20310;-56
2021/08/16 02:13:23;;;;;;;5.40;4.15;;;;;;;;;;4464860;32;20305;-56
2021/08/16 02:15:48;;;;;;;5.82;4.07;;;;;;;;;;4453644;32;20287;-56
2021/08/16 02:18:14;;;;;;;7.55;4.03;;;;;;;;;;4448674;32;20227;-56
2021/08/16 02:20:39;;;;;;;6.55;4.30;;;;;;;;;;4448150;32;20440;-56
2021/08/16 02:23:05;;;;;;;7.05;4.37;;;;;;;;;;4449012;32;20302;-56
2021/08/16 02:25:30;;;;;;;6.72;4.32;;;;;;;;;;4449332;32;20622;-58
2021/08/16 02:27:56;;;;;;;4.57;4.10;;;;;;;;;;4449121;32;20294;-56
2021/08/16 02:30:21;;;;;;;5.68;4.45;;;;;;;;;;4448940;32;20272;-58
2021/08/16 02:32:48;;;;;;;5.55;4.25;;;;;;;;;;4459666;32;20278;-57
2021/08/16 02:35:14;;;;;;;4.22;3.83;;;;;;;;;;4464404;32;20216;-56
2021/08/16 02:37:40;;;;;;;9.20;4.72;;;;;;;;;;4464489;32;20325;-58
2021/08/16 02:40:07;;;;;;;5.50;4.22;;;;;;;;;;4464312;32;20212;-56
2021/08/16 02:42:33;;;;;;;6.78;4.03;;;;;;;;;;4463257;32;20299;-56
2021/08/16 02:44:58;;;;;;;9.10;5.05;;;;;;;;;;4464148;32;20613;-56
2021/08/16 02:47:24;;;;;;;7.10;4.43;;;;;;;;;;4464061;32;20267;-56
2021/08/16 02:49:49;;;;;;;6.78;4.43;;;;;;;;;;4464137;32;20763;-56
2021/08/16 02:52:16;;;;;;;5.32;4.05;;;;;;;;;;4464471;32;20336;-56
2021/08/16 02:54:42;;;;;;;5.37;4.18;;;;;;;;;;4464194;32;20518;-56
2021/08/16 02:57:08;;;;;;;5.50;4.18;;;;;;;;;;4464453;32;20295;-56
2021/08/16 02:59:33;;;;;;;6.28;4.07;;;;;;;;;;4463817;32;20255;-56
2021/08/16 03:01:59;;;;;;;4.87;3.70;;;;;;;;;;4464261;32;20305;-56
2021/08/16 03:04:24;;;;;;;5.62;4.25;;;;;;;;;;4464041;32;20219;-56
2021/08/16 03:06:50;;;;;;;5.22;4.22;;;;;;;;;;4463751;32;20287;-56
2021/08/16 03:09:15;;;;;;;6.07;4.40;;;;;;;;;;4464086;32;20719;-56
2021/08/16 03:11:41;;;;;;;7.82;4.57;;;;;;;;;;4455504;32;20675;-59
2021/08/16 03:14:06;;;;;;;4.80;3.60;;;;;;;;;;4448321;32;20224;-57
2021/08/16 03:16:32;;;;;;;5.97;4.22;;;;;;;;;;4447931;32;20271;-59
2021/08/16 03:18:57;;;;;;;5.03;3.95;;;;;;;;;;4447842;32;20287;-57
2021/08/16 03:21:23;;;;;;;5.03;3.83;;;;;;;;;;4447879;32;20287;-57
2021/08/16 03:23:48;;;;;;;7.53;4.10;;;;;;;;;;4447851;32;20252;-57
2021/08/16 03:26:13;;;;;;;6.95;3.80;;;;;;;;;;4448245;32;20616;-57
2021/08/16 03:28:39;;;;;;;7.40;4.82;;;;;;;;;;4448172;32;20221;-57
2021/08/16 03:31:04;;;;;;;5.68;4.43;;;;;;;;;;4447356;32;20276;-59
2021/08/16 03:33:31;;;;;;;6.90;3.97;;;;;;;;;;4463345;32;20647;-57
2021/08/16 03:35:56;;;;;;;6.68;4.85;;;;;;;;;;4463862;32;20361;-56
2021/08/16 03:38:21;;;;;;;5.18;4.65;;;;;;;;;;4463450;32;20315;-56
2021/08/16 03:40:47;;;;;;;8.00;4.95;;;;;;;;;;4463391;32;20335;-57
2021/08/16 03:43:12;;;;;;;4.55;4.07;;;;;;;;;;4463791;32;20258;-57
2021/08/16 03:45:38;;;;;;;5.80;4.43;;;;;;;;;;4463254;32;20320;-58
2021/08/16 03:48:04;;;;;;;7.00;4.68;;;;;;;;;;4463515;32;20331;-56
2021/08/16 03:50:29;;;;;;;6.68;4.78;;;;;;;;;;4463182;32;20337;-56
2021/08/16 03:52:55;;;;;;;9.25;4.45;;;;;;;;;;4463851;32;20274;-56
2021/08/16 03:55:20;;;;;;;5.90;4.20;;;;;;;;;;4463210;32;20287;-56
2021/08/16 03:57:46;;;;;;;5.68;5.07;;;;;;;;;;4463477;32;20283;-58
2021/08/16 04:00:13;;;;;;;5.65;4.43;;;;;;;;;;4461774;32;20200;-56
2021/08/16 04:02:41;;;;;;;7.80;4.60;;;;;;;;;;4463222;32;20254;-56
2021/08/16 04:05:07;;;;;;;6.60;4.80;;;;;;;;;;4463230;32;20604;-56
2021/08/16 04:07:32;;;;;;;11.48;4.85;;;;;;;;;;4456823;32;20357;-57
2021/08/16 04:09:58;;;;;;;12.25;5.47;;;;;;;;;;4447973;32;20687;-57
2021/08/16 04:12:23;;;;;;;9.27;5.37;;;;;;;;;;4447695;32;20683;-57
2021/08/16 04:14:49;;;;;;;7.60;4.90;;;;;;;;;;4447192;32;20279;-56
2021/08/16 04:17:14;;;;;;;8.40;5.75;;;;;;;;;;4447835;32;20626;-56
2021/08/16 04:19:40;;;;;;;7.25;5.03;;;;;;;;;;4447221;32;20224;-56
2021/08/16 04:22:06;;;;;;;6.40;4.53;;;;;;;;;;4447880;32;20227;-56
2021/08/16 04:24:32;;;;;;;9.13;5.25;;;;;;;;;;4447901;32;20562;-56
2021/08/16 04:26:57;;;;;;;7.82;5.47;;;;;;;;;;4447695;32;20301;-58
2021/08/16 04:29:23;;;;;;;10.93;4.97;;;;;;;;;;4447526;32;20258;-56
2021/08/16 04:31:48;;;;;;;15.32;5.40;;;;;;;;;;4451891;32;20782;-56
2021/08/16 04:34:14;;;;;;;6.03;4.75;;;;;;;;;;4463278;32;20247;-56
2021/08/16 04:36:39;;;;;;;6.85;4.93;;;;;;;;;;4463313;32;20302;-56
2021/08/16 04:39:04;;;;;;;10.88;5.10;;;;;;;;;;4462966;32;20248;-56
2021/08/16 04:41:30;;;;;;;6.37;4.47;;;;;;;;;;4463175;32;20270;-57
2021/08/16 04:43:55;;;;;;;10.23;4.95;;;;;;;;;;4465842;32;20324;-57
2021/08/16 04:46:21;;;;;;;7.50;4.78;;;;;;;;;;4464528;32;20338;-58
2021/08/16 04:48:46;;;;;;;5.15;4.28;;;;;;;;;;4464622;32;20240;-56
2021/08/16 04:51:12;;;;;;;5.72;4.53;;;;;;;;;;4465822;32;20291;-56
2021/08/16 04:53:37;;;;;;;9.95;5.70;;;;;;;;;;4465865;32;20262;-57
2021/08/16 04:56:04;;;;;;;7.72;4.32;;;;;;;;;;4465759;32;20283;-56
2021/08/16 04:58:29;;;;;;;7.62;4.93;;;;;;;;;;4465792;32;20224;-56
2021/08/16 05:00:55;;;;;;;6.65;4.87;;;;;;;;;;4466122;32;20327;-57
2021/08/16 05:03:20;;;;;;;11.43;4.78;;;;;;;;;;4462742;32;20277;-57
2021/08/16 05:05:49;;;;;;;7.87;5.30;;;;;;;;;;4450407;32;20727;-57
2021/08/16 05:08:14;;;;;;;8.07;5.32;;;;;;;;;;4459755;32;20220;-57
2021/08/16 05:10:41;;;;;;;13.18;6.62;;;;;;;;;;4465383;32;20287;-57
2021/08/16 05:13:06;;;;;;;7.22;6.20;;;;;;;;;;4461107;32;20892;-57
2021/08/16 05:15:31;;;;;;;10.55;7.03;;;;;;;;;;4465018;32;20355;-56
2021/08/16 05:18:02;;;;;;;11.20;6.93;;;;;;;;;;4465284;32;20363;-55
2021/08/16 05:20:29;;;;;;;15.10;8.02;;;;;;;;;;4465432;32;20282;-55
2021/08/16 05:22:54;;;;;;;15.10;8.25;;;;;;;;;;4449939;32;20212;-55
2021/08/16 05:25:20;;;;;;;17.77;8.82;;;;;;;;;;4449710;32;20737;-56
2021/08/16 05:27:47;;;;;;;17.27;9.30;;;;;;;;;;4449595;32;20268;-56
2021/08/16 05:30:13;;;;;;;13.68;8.02;;;;;;;;;;4455401;32;20342;-56
2021/08/16 05:32:39;;;;;;;11.63;7.10;;;;;;;;;;4455454;32;20216;-56
2021/08/16 05:35:06;;;;;;;13.48;8.05;;;;;;;;;;4449636;32;20259;-56
2021/08/16 05:37:32;;;;;;;10.55;6.90;;;;;;;;;;4450075;32;20289;-57
2021/08/16 05:39:57;;;;;;;10.88;5.90;;;;;;;;;;4449524;32;20279;-56
2021/08/16 05:42:23;;;;;;;7.72;4.60;;;;;;;;;;4449525;32;20283;-56
2021/08/16 05:44:48;;;;;;;7.70;5.30;;;;;;;;;;4449602;32;20212;-56
2021/08/16 05:47:13;;;;;;;7.07;5.57;;;;;;;;;;4456379;32;20263;-56
2021/08/16 05:49:39;;;;;;;10.07;6.15;;;;;;;;;;4465047;32;20620;-57
2021/08/16 05:52:06;;;;;;;12.55;5.07;;;;;;;;;;4465103;32;20267;-57
2021/08/16 05:54:31;;;;;;;7.65;5.80;;;;;;;;;;4464777;32;20224;-57
2021/08/16 05:56:57;;;;;;;11.93;6.72;;;;;;;;;;4464833;32;20581;-57
2021/08/16 05:59:22;;;;;;;9.68;6.65;;;;;;;;;;4464184;32;20338;-56
2021/08/16 06:01:48;;;;;;;7.22;5.37;;;;;;;;;;4464866;32;20268;-56
2021/08/16 06:04:13;;;;;;;13.57;6.57;;;;;;;;;;4464650;32;20357;-56
2021/08/16 06:06:39;;;;;;;10.25;6.53;;;;;;;;;;4465255;32;20274;-56
2021/08/16 06:09:05;;;;;;;10.43;6.30;;;;;;;;;;4465113;32;20228;-56
2021/08/16 06:11:30;;;;;;;6.28;5.00;;;;;;;;;;4464744;32;20414;-57
2021/08/16 06:13:56;;;;;;;7.70;4.90;;;;;;;;;;4464573;32;20620;-57
2021/08/16 06:16:22;;;;;;;8.43;5.50;;;;;;;;;;4464856;32;20306;-56
2021/08/16 06:18:48;;;;;;;9.18;5.37;;;;;;;;;;4464688;32;20338;-56
2021/08/16 06:21:13;;;;;;;7.53;5.75;;;;;;;;;;4464135;32;20239;-56
2021/08/16 06:23:39;;;;;;;7.07;4.75;;;;;;;;;;4464848;32;20250;-56
2021/08/16 06:26:05;;;;;;;8.73;5.87;;;;;;;;;;4464611;32;20306;-56
2021/08/16 06:28:31;;;;;;;12.68;5.45;;;;;;;;;;4464628;32;20286;-56
2021/08/16 06:30:56;;;;;;;11.98;6.40;;;;;;;;;;4464387;32;20347;-56
2021/08/16 06:33:22;;;;;;;7.28;5.47;;;;;;;;;;4464209;32;20313;-56
2021/08/16 06:35:48;;;;;;;8.30;6.15;;;;;;;;;;4464724;32;20295;-58
2021/08/16 06:38:24;;;;;;;7.43;5.35;;;;;;;;;;4463186;32;20232;-56
2021/08/16 06:40:51;;;;;;;9.23;6.65;;;;;;;;;;4463164;32;20258;-56
2021/08/16 06:43:17;;;;;;;8.57;5.60;;;;;;;;;;4464187;32;20284;-57
2021/08/16 06:45:42;;;;;;;7.37;5.87;;;;;;;;;;4464771;32;20307;-56
2021/08/16 06:48:08;;;;;;;8.80;5.97;;;;;;;;;;4464216;32;20227;-56
2021/08/16 06:50:34;;;;;;;10.73;6.37;;;;;;;;;;4464110;32;20619;-56
2021/08/16 06:52:59;;;;;;;10.82;6.53;;;;;;;;;;4464152;32;20387;-56
2021/08/16 06:55:25;;;;;;;23.90;6.65;;;;;;;;;;4464407;32;20354;-56
2021/08/16 06:57:50;;;;;;;9.60;6.30;;;;;;;;;;4464506;32;20294;-56
2021/08/16 07:00:16;;;;;;;10.05;6.47;;;;;;;;;;4464240;32;20719;-57
2021/08/16 07:02:41;;;;;;;7.28;5.95;;;;;;;;;;4464905;32;20288;-58
2021/08/16 07:05:08;;;;;;;9.68;6.32;;;;;;;;;;4463642;32;20260;-56
2021/08/16 07:07:34;;;;;;;8.45;5.40;;;;;;;;;;4464231;32;20216;-57
2021/08/16 07:10:00;;;;;;;6.95;5.68;;;;;;;;;;4464006;32;20592;-56
2021/08/16 07:12:25;;;;;;;9.30;6.60;;;;;;;;;;4463119;32;20307;-56
2021/08/16 07:14:51;;;;;;;8.73;5.55;;;;;;;;;;4463940;32;20367;-56
2021/08/16 07:17:16;;;;;;;6.60;5.05;;;;;;;;;;4458496;32;20538;-56
2021/08/16 07:19:41;;;;;;;8.82;5.53;;;;;;;;;;4448273;32;20304;-56
2021/08/16 07:22:07;;;;;;;8.82;5.78;;;;;;;;;;4447744;32;20244;-56
2021/08/16 07:24:33;;;;;;;6.85;5.62;;;;;;;;;;4448281;32;20652;-56
2021/08/16 07:26:58;;;;;;;7.57;5.90;;;;;;;;;;4448620;32;20313;-57
2021/08/16 07:29:25;;;;;;;8.35;6.30;;;;;;;;;;4447813;32;20225;-56
2021/08/16 07:31:51;;;;;;;11.82;6.72;;;;;;;;;;4443629;32;20232;-57
2021/08/16 07:34:17;;;;;;;11.40;6.87;;;;;;;;;;4432492;32;20271;-56
2021/08/16 07:36:42;;;;;;;6.97;5.10;;;;;;;;;;4433046;32;20299;-56
2021/08/16 07:39:08;;;;;;;8.43;6.65;;;;;;;;;;4432869;32;20228;-57
2021/08/16 07:41:33;;;;;;;9.15;5.82;;;;;;;;;;4432670;32;20336;-57
2021/08/16 07:43:58;;;;;;;10.20;5.53;;;;;;;;;;4432572;32;20287;-56
2021/08/16 07:46:24;;;;;;;7.53;6.10;;;;;;;;;;4432884;32;20272;-57
2021/08/16 07:48:49;;;;;;;7.37;5.25;;;;;;;;;;4432939;32;20573;-57
2021/08/16 07:51:15;;;;;;;7.80;5.28;;;;;;;;;;4432685;32;20299;-56
2021/08/16 07:53:43;;;;;;;8.07;4.95;;;;;;;;;;4432820;32;20232;-56
2021/08/16 07:56:09;;;;;;;8.27;5.78;;;;;;;;;;4432367;32;20323;-57
2021/08/16 07:58:34;;;;;;;6.37;5.40;;;;;;;;;;4432771;32;20723;-57
2021/08/16 08:01:00;;;;;;;6.72;5.05;;;;;;;;;;4432814;32;20327;-57
2021/08/16 08:03:25;;;;;;;10.05;5.20;;;;;;;;;;4432138;32;20637;-56
2021/08/16 08:05:51;;;;;;;7.43;5.53;;;;;;;;;;4418697;32;20723;-56
2021/08/16 08:08:17;;;;;;;5.75;4.70;;;;;;;;;;4432540;32;20266;-56
2021/08/16 08:10:42;;;;;;;6.65;4.70;;;;;;;;;;4432546;32;20292;-56
2021/08/16 08:13:08;;;;;;;7.53;5.57;;;;;;;;;;4420848;32;20228;-56
2021/08/16 08:15:33;;;;;;;6.60;5.53;;;;;;;;;;4447932;32;20702;-56
2021/08/16 08:17:58;;;;;;;5.53;4.45;;;;;;;;;;4451187;32;20275;-56
2021/08/16 08:20:24;;;;;;;8.30;5.82;;;;;;;;;;4456770;32;20260;-56
2021/08/16 08:22:49;;;;;;;6.35;4.87;;;;;;;;;;4467002;32;20271;-57
2021/08/16 08:25:15;;;;;;;8.57;5.47;;;;;;;;;;4466504;32;20307;-56
2021/08/16 08:27:41;;;;;;;15.18;5.20;;;;;;;;;;4466610;32;20283;-57
2021/08/16 08:30:08;;;;;;;6.75;4.80;;;;;;;;;;4466310;32;20247;-57
2021/08/16 08:32:49;;;;;;;7.47;5.28;;;;;;;;;;4466494;32;20295;-57
2021/08/16 08:35:15;;;;;;;8.02;5.25;;;;;;;;;;4466247;32;20212;-56
2021/08/16 08:37:40;;;;;;;9.70;4.85;;;;;;;;;;4466512;32;20294;-56
2021/08/16 08:40:06;;;;;;;5.30;4.80;;;;;;;;;;4466139;32;20343;-56
2021/08/16 08:42:32;;;;;;;6.97;5.15;;;;;;;;;;4466435;32;20322;-57
2021/08/16 08:44:58;;;;;;;6.22;4.28;;;;;;;;;;4466298;32;20228;-57
2021/08/16 08:47:23;;;;;;;7.55;4.97;;;;;;;;;;4466556;32;20735;-59
2021/08/16 08:49:49;;;;;;;5.25;4.25;;;;;;;;;;4465105;32;20254;-57
2021/08/16 08:52:14;;;;;;;11.75;4.93;;;;;;;;;;4466073;32;20409;-56
2021/08/16 08:54:41;;;;;;;6.53;5.18;;;;;;;;;;4466481;32;20678;-57
2021/08/16 08:57:11;;;;;;;6.00;4.60;;;;;;;;;;4466090;32;20325;-57
2021/08/16 08:59:37;;;;;;;5.00;4.45;;;;;;;;;;4466160;32;20232;-57
2021/08/16 09:02:06;;;;;;;6.50;4.70;;;;;;;;;;4466234;32;20329;-56
2021/08/16 09:04:32;;;;;;;10.65;5.10;;;;;;;;;;4466076;32;20215;-57
2021/08/16 09:06:59;;;;;;;9.35;5.47;;;;;;;;;;4465930;32;20756;-56
2021/08/16 09:09:25;;;;;;;10.95;5.37;;;;;;;;;;4462460;32;20216;-57
2021/08/16 09:11:52;;;;;;;5.93;5.32;;;;;;;;;;4449957;32;20444;-58
2021/08/16 09:14:18;;;;;;;11.25;5.68;;;;;;;;;;4448895;32;20293;-57
2021/08/16 09:16:46;;;;;;;7.90;5.55;;;;;;;;;;4450234;32;20356;-58
2021/08/16 09:19:19;;;;;;;6.78;5.07;;;;;;;;;;4449832;32;20292;-57
2021/08/16 09:22:00;;;;;;;9.20;4.53;;;;;;;;;;4449702;32;20213;-57
2021/08/16 09:24:29;;;;;;;5.07;4.10;;;;;;;;;;4450097;32;20245;-57
2021/08/16 09:27:02;;;;;;;6.78;4.50;;;;;;;;;;4450061;32;20574;-58
2021/08/16 09:29:28;;;;;;;7.07;4.32;;;;;;;;;;4435487;32;20255;-57
2021/08/16 09:31:57;;;;;;;6.80;5.18;;;;;;;;;;4445447;32;20318;-58
2021/08/16 09:34:36;;;;;;;7.30;5.10;;;;;;;;;;4434884;32;20317;-57
2021/08/16 09:37:24;;;;;;;7.55;5.00;;;;;;;;;;4435176;32;20331;-57
2021/08/16 09:40:19;;;;;;;7.12;5.22;;;;;;;;;;4420677;32;20258;-58
2021/08/16 09:42:55;;;;;;;6.95;5.37;;;;;;;;;;4405151;32;20249;-57
2021/08/16 09:45:29;;;;;;;4.57;3.85;;;;;;;;;;4428826;32;20220;-58
2021/08/16 09:47:58;;;;;;;5.72;4.75;;;;;;;;;;4434700;32;20295;-57
2021/08/16 09:50:44;;;;;;;6.22;4.37;;;;;;;;;;4434126;32;20295;-56
2021/08/16 09:53:11;;;;;;;7.07;5.30;;;;;;;;;;4434142;32;20317;-56
2021/08/16 09:55:41;;;;;;;9.52;4.32;;;;;;;;;;4434107;32;20605;-57
2021/08/16 09:58:14;;;;;;;5.47;4.07;;;;;;;;;;4449141;32;20406;-56
2021/08/16 10:00:42;;;;;;;6.20;4.53;;;;;;;;;;4449961;32;20248;-56
2021/08/16 10:03:08;;;;;;;6.87;4.07;;;;;;;;;;4449489;32;20240;-59
2021/08/16 10:05:38;;;;;;;11.30;5.20;;;;;;;;;;4451392;32;20215;-58
2021/08/16 10:08:10;;;;;;;6.25;4.62;;;;;;;;;;4464726;32;20640;-57
2021/08/16 10:10:37;;;;;;;6.35;4.20;;;;;;;;;;4465122;32;20229;-57
2021/08/16 10:13:04;;;;;;;8.57;4.97;;;;;;;;;;4450251;32;20302;-57
2021/08/16 10:15:42;;;;;;;5.20;4.70;;;;;;;;;;4464680;32;20631;-57
2021/08/16 10:18:15;;;;;;;4.72;3.97;;;;;;;;;;4464931;32;20343;-56
2021/08/16 10:20:44;;;;;;;4.18;3.78;;;;;;;;;;4461454;32;20248;-57
2021/08/16 10:23:19;;;;;;;7.75;4.47;;;;;;;;;;4449356;32;20216;-57
2021/08/16 10:25:51;;;;;;;8.30;3.87;;;;;;;;;;4449545;32;20608;-57
2021/08/16 10:28:25;;;;;;;4.07;3.72;;;;;;;;;;4449249;32;20253;-57
2021/08/16 10:30:52;;;;;;;4.50;3.65;;;;;;;;;;4435331;32;20594;-57
2021/08/16 10:33:18;;;;;;;7.12;4.00;;;;;;;;;;4449101;32;20822;-57
2021/08/16 10:35:44;;;;;;;5.05;4.12;;;;;;;;;;4449472;32;20348;-58
2021/08/16 10:38:11;;;;;;;6.25;4.07;;;;;;;;;;4434906;32;20228;-58
2021/08/16 10:40:53;;;;;;;3.65;3.30;;;;;;;;;;4448414;32;20259;-58
2021/08/16 10:43:19;;;;;;;9.25;4.47;;;;;;;;;;4449227;32;20629;-56
2021/08/16 10:45:51;;;;;;;4.45;3.80;;;;;;;;;;4449243;32;20263;-57
2021/08/16 10:48:24;;;;;;;6.95;4.25;;;;;;;;;;4449070;32;20242;-57
2021/08/16 10:51:02;;;;;;;5.47;3.65;;;;;;;;;;4448815;32;20225;-57
2021/08/16 10:53:28;;;;;;;3.67;3.03;;;;;;;;;;4448896;32;20252;-57
2021/08/16 10:55:54;;;;;;;5.57;3.78;;;;;;;;;;4448745;32;20306;-57
2021/08/16 10:58:20;;;;;;;3.35;2.83;;;;;;;;;;4434360;32;20308;-56
2021/08/16 11:00:45;;;;;;;5.85;3.92;;;;;;;;;;4449016;32;20290;-58
2021/08/16 11:03:11;;;;;;;4.82;3.95;;;;;;;;;;4448230;32;20532;-57
2021/08/16 11:05:39;;;;;;;3.62;3.28;;;;;;;;;;4448405;32;20681;-57
2021/08/16 11:08:07;;;;;;;4.90;3.67;;;;;;;;;;4448879;32;20200;-57
2021/08/16 11:10:40;;;;;;;6.05;3.72;;;;;;;;;;4449008;32;20386;-57
2021/08/16 11:13:10;;;;;;;5.25;4.75;;;;;;;;;;4449053;32;20567;-57
2021/08/16 11:15:37;;;;;;;6.10;4.60;;;;;;;;;;4448855;32;20204;-58
2021/08/16 11:18:14;;;;;;;4.75;4.10;;;;;;;;;;4448489;32;20309;-58
2021/08/16 11:20:41;;;;;;;5.40;4.18;;;;;;;;;;4448079;32;20259;-58
2021/08/16 11:23:06;;;;;;;7.43;4.97;;;;;;;;;;4448448;32;20369;-58
2021/08/16 11:25:32;;;;;;;4.68;4.00;;;;;;;;;;4434566;32;20327;-58
2021/08/16 11:28:02;;;;;;;6.40;4.07;;;;;;;;;;4448240;32;20280;-58
2021/08/16 11:30:29;;;;;;;5.97;4.65;;;;;;;;;;4448448;32;20257;-58
2021/08/16 11:32:55;;;;;;;5.80;3.78;;;;;;;;;;4436930;32;20229;-58
2021/08/16 11:35:23;;;;;;;6.32;3.97;;;;;;;;;;4433080;32;20333;-58
2021/08/16 11:37:49;;;;;;;7.03;4.78;;;;;;;;;;4419217;32;20271;-58
2021/08/16 11:40:16;;;;;;;6.82;3.47;;;;;;;;;;4432690;32;20252;-58
2021/08/16 11:42:42;;;;;;;7.37;4.93;;;;;;;;;;4432650;32;20209;-59
2021/08/16 11:45:10;;;;;;;5.20;4.30;;;;;;;;;;4432555;32;20220;-57
2021/08/16 11:47:38;;;;;;;5.28;3.60;;;;;;;;;;4433396;32;20225;-57
2021/08/16 11:50:14;;;;;;;4.80;4.22;;;;;;;;;;4433104;32;20338;-58
2021/08/16 11:52:41;;;;;;;5.15;4.65;;;;;;;;;;4432757;32;20276;-57
2021/08/16 11:55:08;;;;;;;4.53;4.07;;;;;;;;;;4432468;32;20280;-58
2021/08/16 11:57:34;;;;;;;7.18;5.40;;;;;;;;;;4432653;32;20326;-58
2021/08/16 12:00:01;;;;;;;5.75;4.12;;;;;;;;;;4446844;32;20247;-58
2021/08/16 12:02:29;;;;;;;6.40;4.25;;;;;;;;;;4448546;32;20355;-58
2021/08/16 12:04:57;;;;;;;7.10;4.22;;;;;;;;;;4447697;32;20252;-57
2021/08/16 12:07:25;;;;;;;8.07;3.92;;;;;;;;;;4447893;32;20208;-57
2021/08/16 12:09:51;;;;;;;6.43;4.35;;;;;;;;;;4448201;32;20220;-57
2021/08/16 12:12:22;;;;;;;5.05;4.22;;;;;;;;;;4447847;32;20310;-57
2021/08/16 12:15:03;;;;;;;9.15;3.90;;;;;;;;;;4434206;32;20537;-58
2021/08/16 12:17:28;;;;;;;5.20;3.28;;;;;;;;;;4448395;32;20318;-58
2021/08/16 12:20:07;;;;;;;5.80;4.05;;;;;;;;;;4448113;32;20320;-58
2021/08/16 12:22:33;;;;;;;7.97;5.80;;;;;;;;;;4432964;32;20236;-58
2021/08/16 12:25:07;;;;;;;4.12;3.72;;;;;;;;;;4433190;32;20254;-58
2021/08/16 12:27:34;;;;;;;3.62;3.28;;;;;;;;;;4432645;32;20299;-59
2021/08/16 12:29:59;;;;;;;6.65;4.22;;;;;;;;;;4432852;32;20322;-57
2021/08/16 12:32:31;;;;;;;5.93;4.03;;;;;;;;;;4441115;32;20288;-58
2021/08/16 12:35:02;;;;;;;4.85;3.75;;;;;;;;;;4433652;32;20318;-57
2021/08/16 12:37:33;;;;;;;6.12;4.22;;;;;;;;;;4434184;32;20246;-57
2021/08/16 12:40:07;;;;;;;4.47;4.05;;;;;;;;;;4447897;32;20246;-58
2021/08/16 12:42:33;;;;;;;5.85;3.90;;;;;;;;;;4447631;32;20213;-58
2021/08/16 12:44:58;;;;;;;4.87;3.50;;;;;;;;;;4447739;32;20274;-58
2021/08/16 12:47:32;;;;;;;4.57;3.67;;;;;;;;;;4447909;32;20635;-58
2021/08/16 12:50:03;;;;;;;3.92;3.53;;;;;;;;;;4448201;32;20240;-57
2021/08/16 12:52:29;;;;;;;5.20;3.62;;;;;;;;;;4448279;32;20254;-58
2021/08/16 12:54:55;;;;;;;4.47;3.67;;;;;;;;;;4447497;32;20246;-57
2021/08/16 12:57:20;;;;;;;4.85;3.67;;;;;;;;;;4433865;32;20292;-58
2021/08/16 12:59:46;;;;;;;4.75;3.72;;;;;;;;;;4447675;32;20232;-58
2021/08/16 13:02:13;;;;;;;4.05;3.62;;;;;;;;;;4447720;32;20287;-57
2021/08/16 13:04:38;;;;;;;4.20;3.80;;;;;;;;;;4450238;32;20228;-57
2021/08/16 13:07:04;;;;;;;7.82;4.35;;;;;;;;;;4450693;32;20339;-57
2021/08/16 13:09:31;;;;;;;4.95;4.03;;;;;;;;;;4450418;32;20260;-58
2021/08/16 13:11:57;;;;;;;4.18;3.78;;;;;;;;;;4436079;32;20233;-58
2021/08/16 13:14:23;;;;;;;5.93;4.35;;;;;;;;;;4450485;32;20354;-57
2021/08/16 13:16:48;;;;;;;5.43;3.80;;;;;;;;;;4436713;32;20295;-57
2021/08/16 13:19:15;;;;;;;6.15;4.28;;;;;;;;;;4450515;32;20707;-57
2021/08/16 13:21:41;;;;;;;4.68;4.15;;;;;;;;;;4450093;32;20272;-60
2021/08/16 13:24:07;;;;;;;7.50;4.43;;;;;;;;;;4450217;32;20224;-57
2021/08/16 13:26:32;;;;;;;4.87;3.97;;;;;;;;;;4450200;32;20299;-58
2021/08/16 13:28:58;;;;;;;7.55;3.75;;;;;;;;;;4450132;32;20657;-58
2021/08/16 13:31:23;;;;;;;6.75;4.10;;;;;;;;;;4448513;32;20347;-58
2021/08/16 13:33:49;;;;;;;4.65;3.80;;;;;;;;;;4434990;32;20220;-57
2021/08/16 13:36:14;;;;;;;5.90;3.87;;;;;;;;;;4434673;32;20668;-57
2021/08/16 13:38:40;;;;;;;5.07;3.80;;;;;;;;;;4435469;32;20255;-57
2021/08/16 13:41:05;;;;;;;4.75;3.42;;;;;;;;;;4435318;32;20717;-58
2021/08/16 13:43:31;;;;;;;5.22;3.22;;;;;;;;;;4435602;32;20248;-57
2021/08/16 13:45:57;;;;;;;3.83;3.42;;;;;;;;;;4435436;32;20276;-58
2021/08/16 13:48:22;;;;;;;4.87;3.72;;;;;;;;;;4435057;32;20248;-57
2021/08/16 13:50:48;;;;;;;3.50;3.17;;;;;;;;;;4439256;32;20300;-57
2021/08/16 13:53:14;;;;;;;4.90;3.50;;;;;;;;;;4450508;32;20224;-57
2021/08/16 13:55:39;;;;;;;6.43;3.58;;;;;;;;;;4450121;32;20365;-57
2021/08/16 13:58:05;;;;;;;4.30;3.67;;;;;;;;;;4435713;32;20295;-57
2021/08/16 14:00:30;;;;;;;4.62;3.37;;;;;;;;;;4450587;32;20287;-57
2021/08/16 14:02:56;;;;;;;3.78;3.05;;;;;;;;;;4450187;32;20397;-57
2021/08/16 14:05:21;;;;;;;6.62;3.83;;;;;;;;;;4450072;32;20296;-57
2021/08/16 14:07:47;;;;;;;4.22;3.40;;;;;;;;;;4449850;32;20344;-57
2021/08/16 14:10:12;;;;;;;5.20;3.45;;;;;;;;;;4449849;32;20576;-57
2021/08/16 14:12:39;;;;;;;3.65;3.25;;;;;;;;;;4449863;32;20283;-58
2021/08/16 14:15:05;;;;;;;4.75;3.05;;;;;;;;;;4437710;32;20263;-57
2021/08/16 14:17:31;;;;;;;5.68;3.37;;;;;;;;;;4434538;32;20315;-58
2021/08/16 14:19:56;;;;;;;3.60;2.97;;;;;;;;;;4437581;32;20236;-58
2021/08/16 14:22:22;;;;;;;4.18;3.40;;;;;;;;;;4449647;32;20224;-57
2021/08/16 14:24:48;;;;;;;5.53;3.62;;;;;;;;;;4448411;32;20264;-57
2021/08/16 14:27:14;;;;;;;5.12;4.03;;;;;;;;;;4449190;32;20300;-57
2021/08/16 14:29:39;;;;;;;6.25;3.92;;;;;;;;;;4449517;32;20535;-57
2021/08/16 14:32:07;;;;;;;4.25;3.40;;;;;;;;;;4448784;32;20282;-57
2021/08/16 14:34:33;;;;;;;3.97;3.50;;;;;;;;;;4448108;32;20349;-57
2021/08/16 14:36:59;;;;;;;4.82;3.35;;;;;;;;;;4449385;32;20272;-58
2021/08/16 14:39:24;;;;;;;4.40;3.87;;;;;;;;;;4449360;32;20220;-57